Time;durP1;ratioP1;P1;durP2;ratioP2;P2;SDS_P1;SDS_P2;PMS_P1;PMS_P2;Temp;Humidity;BMP_temperature;BMP_pressure;BME280_temperature;BME280_humidity;BME280_pressure;Samples;Min_cycle;Max_cycle;Signal;HPM_P1;HPM_P2
2023/08/17 00:00:18;;;;;;;3.90;2.05;;;;;;;18.87;100.00;101047.38;6001240;29;20057;-91
2023/08/17 00:03:21;;;;;;;;;;;;;;;18.86;100.00;101037.06;6001295;29;20171;-91
2023/08/17 00:06:25;;;;;;;3.65;2.15;;;;;;;18.84;100.00;101042.44;5996372;29;20235;-91
2023/08/17 00:09:27;;;;;;;7.15;2.30;;;;;;;18.80;100.00;101032.44;6005306;29;20049;-89
2023/08/17 00:12:29;;;;;;;11.63;2.67;;;;;;;18.70;100.00;101038.63;6006737;29;20069;-90
2023/08/17 00:15:32;;;;;;;5.70;2.40;;;;;;;18.56;100.00;101047.13;6000452;29;20053;-90
2023/08/17 00:18:37;;;;;;;5.60;2.30;;;;;;;18.42;100.00;101058.25;6012816;29;20038;-89
2023/08/17 00:21:38;;;;;;;4.30;2.38;;;;;;;18.27;100.00;101058.03;6001997;29;20089;-90
2023/08/17 00:24:44;;;;;;;7.60;2.38;;;;;;;18.13;100.00;101062.06;5991061;29;20142;-90
2023/08/17 00:27:46;;;;;;;4.65;2.50;;;;;;;18.08;100.00;101059.09;6007311;29;20046;-91
2023/08/17 00:30:51;;;;;;;6.30;2.40;;;;;;;18.05;100.00;101060.22;6000217;29;20078;-91
2023/08/17 00:33:53;;;;;;;5.07;2.40;;;;;;;17.96;100.00;101060.34;5995998;29;20062;-90
2023/08/17 00:36:55;;;;;;;5.65;2.60;;;;;;;17.84;100.00;101060.63;6008428;29;20050;-90
2023/08/17 00:39:56;;;;;;;4.57;2.90;;;;;;;17.69;100.00;101056.06;5991732;29;20081;-91
2023/08/17 00:42:58;;;;;;;8.43;3.05;;;;;;;17.64;100.00;101061.78;6001630;29;20163;-91
2023/08/17 00:46:01;;;;;;;6.57;2.72;;;;;;;17.62;100.00;101064.53;5988860;29;20046;-92
2023/08/17 00:49:05;;;;;;;7.80;2.58;;;;;;;17.60;100.00;101073.53;5981310;29;20058;-92
2023/08/17 00:52:07;;;;;;;5.43;2.92;;;;;;;17.61;100.00;101085.63;5998161;29;20034;-92
2023/08/17 00:55:10;;;;;;;7.55;3.30;;;;;;;17.54;100.00;101082.81;6007483;29;20053;-92
2023/08/17 00:58:12;;;;;;;6.90;2.90;;;;;;;17.43;100.00;101101.38;6010708;29;20559;-93
2023/08/17 01:01:15;;;;;;;5.75;2.80;;;;;;;17.41;100.00;101092.84;6009605;29;20049;-92
2023/08/17 01:04:17;;;;;;;3.97;2.50;;;;;;;17.38;100.00;101099.22;6002770;29;20056;-93
2023/08/17 01:07:21;;;;;;;6.63;3.00;;;;;;;17.34;100.00;101103.13;6006662;29;20057;-94
2023/08/17 01:10:25;;;;;;;9.45;3.42;;;;;;;17.33;100.00;101103.25;6004131;29;20046;-94
2023/08/17 01:13:38;;;;;;;9.70;3.22;;;;;;;17.35;100.00;101114.41;6007420;29;20061;-94
2023/08/17 01:16:50;;;;;;;7.90;3.35;;;;;;;17.38;100.00;101120.16;6003946;29;20046;-93
2023/08/17 01:19:53;;;;;;;8.23;3.45;;;;;;;17.41;100.00;101130.31;6006136;29;20042;-93
2023/08/17 01:22:58;;;;;;;6.43;3.33;;;;;;;17.43;100.00;101141.47;6004263;29;20108;-92
2023/08/17 01:26:02;;;;;;;6.00;3.08;;;;;;;17.46;100.00;101139.50;6006824;29;20042;-91
2023/08/17 01:29:04;;;;;;;7.65;3.47;;;;;;;17.47;100.00;101149.84;5997566;29;20042;-92
2023/08/17 01:32:37;;;;;;;5.43;3.28;;;;;;;17.46;100.00;101134.28;6008231;29;20122;-94
2023/08/17 01:35:46;;;;;;;5.15;3.13;;;;;;;17.44;100.00;101145.72;6003170;29;20061;-93
2023/08/17 01:38:55;;;;;;;5.25;3.47;;;;;;;17.46;100.00;101142.13;5996008;29;20054;-92
2023/08/17 01:42:00;;;;;;;7.28;3.42;;;;;;;17.45;100.00;101138.69;5999832;29;20041;-92
2023/08/17 01:45:02;;;;;;;6.38;3.70;;;;;;;17.43;100.00;101148.50;6014773;29;20491;-93
2023/08/17 01:48:04;;;;;;;12.82;4.10;;;;;;;17.45;100.00;101143.94;5987760;29;20432;-93
2023/08/17 01:51:06;;;;;;;11.90;3.63;;;;;;;17.46;100.00;101139.50;6005854;29;20048;-94
2023/08/17 01:54:08;;;;;;;6.88;3.70;;;;;;;17.43;100.00;101133.59;6016229;29;20162;-96
2023/08/17 01:57:10;;;;;;;9.75;3.83;;;;;;;17.36;100.00;101123.88;5985684;29;20413;-96
2023/08/17 02:00:13;;;;;;;7.57;3.85;;;;;;;17.32;100.00;101120.75;5992862;29;20061;-96
2023/08/17 02:03:17;;;;;;;7.10;3.90;;;;;;;17.35;100.00;101125.69;6004575;29;20056;-95
2023/08/17 02:06:19;;;;;;;5.25;3.90;;;;;;;17.36;100.00;101126.50;6007921;29;20520;-96
2023/08/17 02:09:22;;;;;;;6.07;3.70;;;;;;;17.35;100.00;101123.06;5993675;29;20046;-96
2023/08/17 02:12:28;;;;;;;9.50;3.50;;;;;;;17.38;100.00;101107.06;6008443;29;20054;-96
2023/08/17 02:15:48;;;;;;;6.97;4.05;;;;;;;17.34;100.00;101113.59;6018391;29;20069;-95
2023/08/17 02:18:57;;;;;;;6.72;4.05;;;;;;;17.30;100.00;101108.81;6004568;29;20405;-95
2023/08/17 02:21:59;;;;;;;8.07;4.32;;;;;;;17.32;100.00;101115.53;5998965;29;20549;-96
2023/08/17 02:25:05;;;;;;;12.65;4.25;;;;;;;17.31;100.00;101107.81;6030027;29;20060;-96
2023/08/17 02:28:17;;;;;;;15.25;4.32;;;;;;;17.31;100.00;101108.63;6037233;29;20046;-96
2023/08/17 02:31:37;;;;;;;7.35;3.72;;;;;;;17.32;100.00;101110.31;6215351;24;20032;31
2023/08/17 02:38:37;;;;;;;15.07;4.65;;;;;;;17.28;100.00;101098.47;6025063;29;20082;-96
2023/08/17 02:42:12;;;;;;;6.88;3.88;;;;;;;17.30;100.00;101088.69;6665618;23;20085;-96
2023/08/17 02:45:17;;;;;;;8.60;3.95;;;;;;;17.28;100.00;101077.53;6259512;24;20053;-96
2023/08/17 02:48:47;;;;;;;5.15;4.00;;;;;;;17.28;100.00;101069.69;6306957;23;20111;31
2023/08/17 02:52:05;;;;;;;10.38;4.05;;;;;;;17.27;100.00;101075.09;6732468;24;20031;31
2023/08/17 02:55:18;;;;;;;7.28;4.25;;;;;;;17.26;100.00;101066.41;6007977;29;20141;-96
2023/08/17 03:06:08;;;;;;;7.63;4.07;;;;;;;17.27;100.00;101041.91;6217984;24;20975;-96
2023/08/17 03:09:18;;;;;;;5.45;3.92;;;;;;;17.23;100.00;101037.94;6413039;24;20056;-93
2023/08/17 03:12:21;;;;;;;4.90;4.05;;;;;;;17.19;100.00;101045.28;6009845;29;20461;-95
2023/08/17 03:15:23;;;;;;;7.88;4.20;;;;;;;17.19;100.00;101034.81;6002664;29;20149;-95
2023/08/17 03:18:26;;;;;;;9.05;4.70;;;;;;;17.18;100.00;101034.94;5987866;29;20056;-93
2023/08/17 03:21:28;;;;;;;7.05;4.68;;;;;;;17.19;100.00;101036.59;6004932;29;20048;-95
2023/08/17 03:24:31;;;;;;;8.35;4.60;;;;;;;17.20;100.00;101028.59;6002076;29;20211;-93
2023/08/17 03:27:33;;;;;;;7.30;4.53;;;;;;;17.19;100.00;101019.13;5993892;29;20054;-96
2023/08/17 03:30:35;;;;;;;7.90;4.35;;;;;;;17.26;100.00;101026.34;6006108;29;20054;-94
2023/08/17 03:33:37;;;;;;;7.25;4.78;;;;;;;17.24;100.00;101016.00;6003145;29;20061;-94
2023/08/17 03:36:39;;;;;;;8.18;4.70;;;;;;;17.27;100.00;101018.34;6010232;29;20424;-94
2023/08/17 03:39:41;;;;;;;6.57;4.20;;;;;;;17.26;100.00;101021.91;6004470;29;20057;-94
2023/08/17 03:42:43;;;;;;;8.57;4.50;;;;;;;17.25;100.00;101016.88;6003520;29;20048;-93
2023/08/17 03:45:47;;;;;;;5.82;4.90;;;;;;;17.27;100.00;101026.19;6002249;29;20049;-94
2023/08/17 03:48:49;;;;;;;7.65;4.85;;;;;;;17.29;100.00;101026.88;6004205;29;20175;-93
2023/08/17 03:51:51;;;;;;;7.43;4.28;;;;;;;17.29;100.00;101033.88;6003542;29;20592;-94
2023/08/17 03:54:53;;;;;;;6.88;4.50;;;;;;;17.28;100.00;101035.69;5996832;29;20425;-94
2023/08/17 03:57:55;;;;;;;7.55;4.00;;;;;;;17.30;100.00;101035.53;6003002;29;20054;-94
2023/08/17 04:00:58;;;;;;;4.65;3.72;;;;;;;17.32;100.00;101041.44;5995973;29;20050;-94
2023/08/17 04:04:03;;;;;;;4.18;3.75;;;;;;;17.33;100.00;101041.28;6003350;29;20056;-94
2023/08/17 04:07:06;;;;;;;6.20;3.95;;;;;;;17.31;100.00;101053.69;6000219;29;20069;-95
2023/08/17 04:10:09;;;;;;;8.57;3.97;;;;;;;17.35;100.00;101062.88;5994753;29;20050;-94
2023/08/17 04:13:11;;;;;;;5.38;4.25;;;;;;;17.32;100.00;101055.34;5995068;29;20163;-93
2023/08/17 04:16:13;;;;;;;5.78;4.10;;;;;;;17.34;100.00;101065.66;5987584;29;20054;-93
2023/08/17 04:19:15;;;;;;;5.35;4.50;;;;;;;17.31;100.00;101066.78;5985128;29;20046;-93
2023/08/17 04:22:17;;;;;;;7.18;5.20;;;;;;;17.34;100.00;101063.88;5987648;29;20059;-92
2023/08/17 04:25:19;;;;;;;7.40;5.95;;;;;;;17.37;100.00;101066.19;6023529;29;20057;-93
2023/08/17 04:28:21;;;;;;;8.65;6.00;;;;;;;17.39;100.00;101064.22;6000196;29;20058;-93
2023/08/17 04:31:26;;;;;;;9.75;7.13;;;;;;;17.41;100.00;101064.88;5997778;29;20054;-94
2023/08/17 04:34:35;;;;;;;9.68;7.45;;;;;;;17.43;100.00;101064.72;5996046;29;20077;-94
2023/08/17 04:37:38;;;;;;;9.15;6.80;;;;;;;17.43;100.00;101067.34;5998734;29;20053;-94
2023/08/17 04:40:41;;;;;;;6.85;5.88;;;;;;;17.49;100.00;101068.53;5997847;29;20638;-94
2023/08/17 04:43:46;;;;;;;7.38;5.88;;;;;;;17.47;100.00;101071.31;6000257;29;20103;-94
2023/08/17 04:46:48;;;;;;;6.32;5.30;;;;;;;17.49;100.00;101073.75;5998721;29;20046;-94
2023/08/17 04:49:52;;;;;;;6.63;4.72;;;;;;;17.48;100.00;101083.41;5980541;29;20083;-94
2023/08/17 04:52:54;;;;;;;6.25;4.57;;;;;;;17.47;100.00;101081.78;5992676;29;20057;-94
2023/08/17 04:55:56;;;;;;;6.47;5.47;;;;;;;17.47;100.00;101080.97;6017057;29;20077;-94
2023/08/17 04:58:58;;;;;;;5.68;5.13;;;;;;;17.49;100.00;101073.75;6015180;29;20232;-94
2023/08/17 05:02:00;;;;;;;7.70;5.53;;;;;;;17.51;100.00;101075.25;6001919;29;20500;-95
2023/08/17 05:05:04;;;;;;;7.40;6.25;;;;;;;17.55;100.00;101084.47;6013322;29;20402;-94
2023/08/17 05:08:06;;;;;;;7.78;6.40;;;;;;;17.55;100.00;101084.47;5998589;29;20058;-94
2023/08/17 05:11:08;;;;;;;7.55;6.75;;;;;;;17.60;100.00;101084.00;5993092;29;20061;-93
2023/08/17 05:14:10;;;;;;;6.75;6.15;;;;;;;17.66;100.00;101088.59;6001372;29;20053;-88
2023/08/17 05:17:13;;;;;;;8.23;7.00;;;;;;;17.69;100.00;101080.47;6003106;29;20136;-93
2023/08/17 05:20:15;;;;;;;7.43;6.72;;;;;;;17.71;100.00;101091.59;6001726;29;20066;-93
2023/08/17 05:23:17;;;;;;;7.10;6.43;;;;;;;17.74;100.00;101087.84;6001235;29;20046;-93
2023/08/17 05:26:20;;;;;;;7.03;6.13;;;;;;;17.78;100.00;101087.38;6001674;29;20178;-92
2023/08/17 05:29:22;;;;;;;7.50;6.68;;;;;;;17.81;100.00;101094.13;6002367;29;20537;-94
2023/08/17 05:32:24;;;;;;;6.63;6.03;;;;;;;17.80;100.00;101092.50;6012283;29;20060;-93
2023/08/17 05:35:27;;;;;;;8.15;6.70;;;;;;;17.82;100.00;101088.75;6001578;29;20073;-93
2023/08/17 05:38:30;;;;;;;7.70;7.00;;;;;;;17.80;100.00;101085.47;5996988;29;20501;-93
2023/08/17 05:41:33;;;;;;;9.48;7.43;;;;;;;17.79;100.00;101086.44;5996887;29;20521;-93
2023/08/17 05:44:35;;;;;;;8.48;7.45;;;;;;;17.81;100.00;101087.13;5991103;29;20042;-93
2023/08/17 05:47:38;;;;;;;9.32;7.97;;;;;;;17.83;100.00;101092.19;6003183;29;20124;-93
2023/08/17 05:50:46;;;;;;;10.35;8.00;;;;;;;17.86;100.00;101092.72;5996974;29;20046;-92
2023/08/17 05:53:48;;;;;;;7.90;7.00;;;;;;;17.85;100.00;101091.06;6012201;29;20179;-93
2023/08/17 05:56:51;;;;;;;8.10;7.28;;;;;;;17.85;100.00;101101.53;6005406;29;20413;-93
2023/08/17 05:59:53;;;;;;;8.57;7.78;;;;;;;17.84;100.00;101097.28;5996309;29;20054;-93
2023/08/17 06:03:00;;;;;;;10.07;7.95;;;;;;;17.84;100.00;101096.47;6005708;29;20178;-92
2023/08/17 06:06:05;;;;;;;10.30;8.15;;;;;;;17.86;100.00;101095.34;5994633;29;20058;-94
2023/08/17 06:09:08;;;;;;;10.73;7.90;;;;;;;17.91;100.00;101096.66;6004814;29;20499;-94
2023/08/17 06:12:10;;;;;;;9.13;7.90;;;;;;;17.94;100.00;101097.19;6005908;29;20050;-93
2023/08/17 06:15:13;;;;;;;10.68;7.88;;;;;;;17.99;100.00;101099.34;6000237;29;20046;-94
2023/08/17 06:18:15;;;;;;;8.05;7.20;;;;;;;17.99;100.00;101101.97;5996244;29;20053;-93
2023/08/17 06:21:19;;;;;;;9.20;6.90;;;;;;;18.01;100.00;101105.22;5996830;29;20133;-94
2023/08/17 06:24:21;;;;;;;7.47;6.60;;;;;;;18.04;100.00;101104.94;5997895;29;20112;-93
2023/08/17 06:27:23;;;;;;;10.10;7.10;;;;;;;18.02;100.00;101109.50;5996653;29;20825;-93
2023/08/17 06:30:26;;;;;;;8.63;7.03;;;;;;;18.06;100.00;101105.56;5989178;29;20050;-94
2023/08/17 06:33:28;;;;;;;8.68;7.25;;;;;;;18.08;100.00;101106.25;5999790;29;20417;-94
2023/08/17 06:36:31;;;;;;;12.23;6.93;;;;;;;18.10;100.00;101103.47;6011759;29;20637;-93
2023/08/17 06:39:33;;;;;;;8.23;7.28;;;;;;;18.10;100.00;101106.91;5993136;29;20050;-94
2023/08/17 06:42:35;;;;;;;9.30;7.63;;;;;;;18.10;100.00;101104.28;5997892;29;20476;-94
2023/08/17 06:45:37;;;;;;;9.43;7.38;;;;;;;18.14;100.00;101110.06;6008377;29;20046;-94
2023/08/17 06:48:40;;;;;;;9.32;6.65;;;;;;;18.15;100.00;101109.88;6001843;29;20420;-95
2023/08/17 06:51:42;;;;;;;10.13;6.70;;;;;;;18.16;100.00;101105.47;6004708;29;20057;-93
2023/08/17 06:54:44;;;;;;;8.02;6.72;;;;;;;18.18;100.00;101104.31;6002175;29;20041;-94
2023/08/17 06:57:51;;;;;;;7.78;7.05;;;;;;;18.22;100.00;101107.47;5998238;29;20348;-94
2023/08/17 07:00:53;;;;;;;9.40;6.20;;;;;;;18.27;100.00;101106.00;5998990;29;20282;-96
2023/08/17 07:03:56;;;;;;;7.57;6.80;;;;;;;18.32;100.00;101102.94;6000796;29;20385;-95
2023/08/17 07:06:59;;;;;;;6.50;5.93;;;;;;;18.38;100.00;101109.31;6003037;29;20524;-95
2023/08/17 07:10:01;;;;;;;8.63;5.97;;;;;;;18.40;100.00;101115.25;5998717;29;20195;-96
2023/08/17 07:13:06;;;;;;;8.73;6.88;;;;;;;18.44;100.00;101113.97;6021288;29;20282;-96
2023/08/17 07:16:15;;;;;;;5.90;5.30;;;;;;;18.43;100.00;101107.91;6000371;29;20053;-96
2023/08/17 07:19:22;;;;;;;6.90;5.63;;;;;;;18.48;100.00;101128.38;5986239;29;20401;-95
2023/08/17 07:22:48;;;;;;;7.03;5.90;;;;;;;18.46;100.00;101125.13;6016061;29;20058;-96
2023/08/17 07:25:50;;;;;;;8.52;5.70;;;;;;;18.47;100.00;101122.31;6011927;29;20061;-96
2023/08/17 07:28:55;;;;;;;6.60;5.90;;;;;;;18.52;100.00;101117.41;5994866;29;20053;-96
2023/08/17 07:32:09;;;;;;;7.13;6.00;;;;;;;18.63;100.00;101116.31;6014088;29;20050;-96
2023/08/17 07:35:11;;;;;;;6.65;5.95;;;;;;;18.77;100.00;101116.72;6012846;29;20042;-96
2023/08/17 07:38:27;;;;;;;7.55;6.55;;;;;;;18.84;100.00;101117.72;5999591;29;20053;-96
2023/08/17 07:41:36;;;;;;;;;;;;;;;18.93;100.00;101121.97;6007115;29;20050;-96
2023/08/17 07:44:39;;;;;;;6.88;6.10;;;;;;;18.96;100.00;101126.91;6003799;29;19928;-95
2023/08/17 07:47:42;;;;;;;8.63;6.47;;;;;;;19.01;100.00;101126.44;6016078;29;20048;-95
2023/08/17 07:50:49;;;;;;;8.43;7.55;;;;;;;19.03;100.00;101127.91;6011630;29;20030;-96
2023/08/17 07:53:59;;;;;;;9.20;7.60;;;;;;;19.12;100.00;101124.31;6016615;29;20034;-95
2023/08/17 08:01:25;;;;;;;8.13;6.93;;;;;;;19.57;100.00;101127.44;6025683;29;20034;-95
2023/08/17 08:04:30;;;;;;;7.68;6.88;;;;;;;19.76;100.00;101134.19;6311259;23;20031;-96
2023/08/17 09:06:06;;;;;;;;;;;;;;;;;;;;;
2023/08/17 09:09:53;;;;;;;9.23;7.03;;;;;;;19.71;100.00;101094.47;4225468;27;20141;-96
2023/08/17 09:13:02;;;;;;;8.80;7.47;;;;;;;19.64;100.00;101082.94;5980246;29;20055;-96
2023/08/17 09:16:52;;;;;;;7.95;7.07;;;;;;;19.55;100.00;101084.75;6038428;24;20110;-96
2023/08/17 09:20:54;;;;;;;10.35;8.15;;;;;;;19.53;100.00;101090.19;5601684;27;20038;-96
2023/08/17 09:24:10;;;;;;;10.13;9.07;;;;;;;19.65;100.00;101074.91;6000048;29;20073;-96
2023/08/17 09:27:59;;;;;;;9.07;8.15;;;;;;;19.74;100.00;101073.09;6046372;24;20065;-96
2023/08/17 09:31:27;;;;;;;9.27;8.27;;;;;;;19.71;100.00;101065.56;6009057;29;20079;-95
2023/08/17 09:34:32;;;;;;;8.93;7.60;;;;;;;19.64;100.00;101070.63;6000622;29;20073;-96
2023/08/17 09:37:39;;;;;;;8.95;7.75;;;;;;;19.57;100.00;101070.47;5986382;29;20050;-96
2023/08/17 09:40:42;;;;;;;8.90;7.93;;;;;;;19.52;100.00;101071.97;5963564;29;20053;-95
2023/08/17 09:43:45;;;;;;;9.27;7.65;;;;;;;19.43;100.00;101073.78;5961953;29;20501;-96
2023/08/17 09:46:47;;;;;;;9.43;7.85;;;;;;;19.35;100.00;101077.25;5980795;29;20046;-95
2023/08/17 09:49:54;;;;;;;8.32;7.50;;;;;;;19.30;100.00;101076.06;5981635;29;20149;-94
2023/08/17 09:52:57;;;;;;;8.68;7.80;;;;;;;19.25;100.00;101075.75;5979804;29;20046;-94
2023/08/17 09:55:59;;;;;;;8.02;7.25;;;;;;;19.18;100.00;101072.97;5981200;29;20046;-93
2023/08/17 09:59:01;;;;;;;8.02;7.32;;;;;;;19.19;100.00;101074.63;5981712;29;20183;-94
2023/08/17 10:02:03;;;;;;;8.70;6.60;;;;;;;19.19;100.00;101084.28;5981787;29;20133;-94
2023/08/17 10:05:15;;;;;;;6.38;5.78;;;;;;;19.20;100.00;101083.31;5981795;29;20074;-94
2023/08/17 10:08:21;;;;;;;4.90;4.50;;;;;;;19.21;100.00;101090.22;5973246;29;20954;-94
2023/08/17 10:11:24;;;;;;;3.95;3.65;;;;;;;19.14;100.00;101092.66;5967573;29;20116;-93
2023/08/17 10:14:36;;;;;;;3.42;3.17;;;;;;;18.99;100.00;101102.97;5982473;29;20046;-93
2023/08/17 10:18:01;;;;;;;3.75;3.45;;;;;;;18.89;100.00;101100.50;5970994;29;20082;-93
2023/08/17 10:21:10;;;;;;;3.70;3.40;;;;;;;18.79;100.00;101099.81;5979736;29;20447;-93
2023/08/17 10:24:12;;;;;;;4.05;3.58;;;;;;;18.69;100.00;101099.94;5980944;29;20058;-93
2023/08/17 10:27:15;;;;;;;4.10;3.80;;;;;;;18.59;100.00;101104.50;5982731;29;20038;-93
2023/08/17 10:30:17;;;;;;;5.85;3.67;;;;;;;18.50;100.00;101101.00;5970445;29;20057;-92
2023/08/17 10:33:19;;;;;;;4.82;3.80;;;;;;;18.35;100.00;101094.75;5969512;29;20094;-92
2023/08/17 10:36:23;;;;;;;4.38;3.97;;;;;;;18.29;100.00;101103.25;5975208;29;20119;-93
2023/08/17 10:39:31;;;;;;;4.90;4.35;;;;;;;18.28;100.00;101099.81;5981049;29;20098;-93
2023/08/17 10:42:35;;;;;;;4.70;4.30;;;;;;;18.26;100.00;101108.78;5983205;29;20050;-92
2023/08/17 10:45:38;;;;;;;5.53;4.82;;;;;;;18.28;100.00;101112.06;5979856;29;20047;-93
2023/08/17 10:48:43;;;;;;;5.70;5.18;;;;;;;18.23;100.00;101115.16;5967875;29;20057;-93
2023/08/17 10:52:01;;;;;;;5.68;5.07;;;;;;;18.22;100.00;101116.16;5992882;29;20050;-93
2023/08/17 10:55:06;;;;;;;6.32;4.60;;;;;;;18.16;100.00;101119.41;5980650;29;20042;-93
2023/08/17 10:58:08;;;;;;;4.75;4.35;;;;;;;18.18;100.00;101121.84;5991941;29;20087;-93
2023/08/17 11:01:31;;;;;;;6.85;5.68;;;;;;;18.19;100.00;101128.75;5981033;29;20046;-93
2023/08/17 11:04:33;;;;;;;6.25;5.68;;;;;;;18.22;100.00;101129.25;5979837;29;20058;-93
2023/08/17 11:07:44;;;;;;;7.53;5.15;;;;;;;18.21;100.00;101132.84;5980855;29;20054;-93
2023/08/17 11:11:09;;;;;;;5.18;4.72;;;;;;;18.17;100.00;101131.53;5984061;29;20050;-94
2023/08/17 11:14:11;;;;;;;5.82;5.28;;;;;;;18.10;100.00;101138.34;5981254;29;20541;-93
2023/08/17 11:17:13;;;;;;;5.43;4.53;;;;;;;18.02;100.00;101133.91;5980057;29;20590;-94
2023/08/17 11:20:15;;;;;;;7.10;4.90;;;;;;;18.02;100.00;101140.94;5992052;29;20156;-93
2023/08/17 11:23:17;;;;;;;5.75;4.80;;;;;;;18.05;100.00;101146.69;5993225;29;20492;-94
2023/08/17 11:26:19;;;;;;;4.88;4.47;;;;;;;18.08;100.00;101148.16;5978749;29;20069;-94
2023/08/17 11:29:23;;;;;;;5.05;4.55;;;;;;;18.06;100.00;101147.50;5983651;29;20421;-94
2023/08/17 11:32:25;;;;;;;7.20;4.30;;;;;;;18.11;100.00;101145.25;5979759;29;20076;-93
2023/08/17 11:35:27;;;;;;;4.88;4.47;;;;;;;18.22;100.00;101147.59;5989649;29;20046;-93
2023/08/17 11:38:40;;;;;;;4.72;4.22;;;;;;;18.25;100.00;101149.91;5980194;29;20045;-93
2023/08/17 11:41:42;;;;;;;5.80;4.50;;;;;;;18.22;100.00;101146.78;5985209;29;20182;-93
2023/08/17 11:44:44;;;;;;;5.97;4.50;;;;;;;18.22;100.00;101146.78;5965498;29;20043;-93
2023/08/17 11:47:47;;;;;;;5.25;4.72;;;;;;;18.34;100.00;101142.09;5989325;29;20057;-93
2023/08/17 11:50:49;;;;;;;6.05;4.95;;;;;;;18.42;100.00;101147.38;5981723;29;20050;-93
2023/08/17 11:53:52;;;;;;;8.27;6.05;;;;;;;18.60;100.00;101145.47;5979471;29;20642;-94
2023/08/17 11:56:54;;;;;;;7.25;6.00;;;;;;;18.89;100.00;101141.66;5977389;29;20049;-93
2023/08/17 11:59:56;;;;;;;5.88;5.30;;;;;;;19.08;100.00;101123.00;5972604;29;20509;-93
2023/08/17 12:02:59;;;;;;;6.97;5.22;;;;;;;19.20;100.00;101117.41;5981233;29;20039;-93
2023/08/17 12:06:01;;;;;;;6.63;5.30;;;;;;;19.14;100.00;101117.09;5965333;29;20517;-94
2023/08/17 12:09:04;;;;;;;6.50;5.25;;;;;;;19.11;100.00;101114.81;5977722;29;20047;-93
2023/08/17 12:12:08;;;;;;;7.70;5.30;;;;;;;19.04;100.00;101119.06;5979408;29;20154;-94
2023/08/17 12:15:11;;;;;;;6.75;5.30;;;;;;;19.05;100.00;101115.44;5980333;29;20046;-94
2023/08/17 12:18:16;;;;;;;8.38;5.20;;;;;;;19.11;100.00;101114.81;5980934;29;20053;-93
2023/08/17 12:21:21;;;;;;;8.02;5.57;;;;;;;19.10;100.00;101105.25;5982484;29;20485;-94
2023/08/17 12:24:26;;;;;;;10.20;5.72;;;;;;;19.09;100.00;101110.69;5981745;29;20046;-94
2023/08/17 12:27:28;;;;;;;7.57;5.45;;;;;;;19.04;100.00;101108.56;5978003;29;20505;-94
2023/08/17 12:30:32;;;;;;;8.30;5.80;;;;;;;19.01;100.00;101108.06;5981662;29;20068;-94
2023/08/17 12:33:34;;;;;;;8.43;6.93;;;;;;;18.95;100.00;101114.75;5981568;29;20046;-94
2023/08/17 12:36:37;;;;;;;9.10;5.38;;;;;;;18.94;100.00;101110.50;5981877;29;20046;-94
2023/08/17 12:39:39;;;;;;;7.32;4.80;;;;;;;18.94;100.00;101098.22;5980672;29;20091;-93
2023/08/17 12:42:41;;;;;;;6.20;4.57;;;;;;;18.93;100.00;101106.22;5981002;29;20055;-92
2023/08/17 12:45:43;;;;;;;7.30;5.43;;;;;;;18.92;100.00;101099.34;5977283;29;20587;-93
2023/08/17 12:48:45;;;;;;;6.85;5.03;;;;;;;18.90;100.00;101102.13;5981291;29;20043;-94
2023/08/17 12:51:47;;;;;;;6.15;4.63;;;;;;;18.81;100.00;101099.69;5987996;29;20047;-93
2023/08/17 12:54:49;;;;;;;8.32;5.07;;;;;;;18.75;100.00;101100.28;5979488;29;20050;-94
2023/08/17 12:57:53;;;;;;;5.00;4.13;;;;;;;18.69;100.00;101107.81;5982391;29;20390;-93
2023/08/17 13:00:57;;;;;;;6.50;4.45;;;;;;;18.64;100.00;101096.16;5978179;29;20125;-92
2023/08/17 13:03:59;;;;;;;5.55;4.40;;;;;;;18.46;100.00;101098.91;5976280;29;20043;-92
2023/08/17 13:07:01;;;;;;;7.75;4.93;;;;;;;18.42;100.00;101101.00;5977308;29;20348;-92
2023/08/17 13:10:04;;;;;;;5.82;4.50;;;;;;;18.43;100.00;101100.03;5986941;29;20136;-92
2023/08/17 13:13:06;;;;;;;7.07;4.72;;;;;;;18.46;100.00;101110.19;5986997;29;20053;-92
2023/08/17 13:16:09;;;;;;;6.53;4.78;;;;;;;18.41;100.00;101109.00;5983994;29;20050;-92
2023/08/17 13:19:10;;;;;;;7.05;4.75;;;;;;;18.35;100.00;101113.09;5987386;29;20042;-91
2023/08/17 13:22:12;;;;;;;7.43;4.60;;;;;;;18.25;100.00;101121.06;5986929;29;20053;-92
2023/08/17 13:25:14;;;;;;;6.07;4.50;;;;;;;18.14;100.00;101123.97;5980432;29;20508;-92
2023/08/17 13:28:17;;;;;;;5.22;4.70;;;;;;;18.12;100.00;101120.69;5987141;29;20065;-92
2023/08/17 13:31:19;;;;;;;6.80;5.20;;;;;;;18.03;100.00;101116.38;5975400;29;20361;-92
2023/08/17 13:34:25;;;;;;;9.32;5.97;;;;;;;18.04;100.00;101118.03;5984840;29;20153;-92
2023/08/17 13:37:27;;;;;;;11.38;7.25;;;;;;;18.08;100.00;101117.53;5980196;29;20435;-92
2023/08/17 13:40:33;;;;;;;8.98;5.63;;;;;;;18.04;100.00;101121.47;5986425;29;20717;-92
2023/08/17 13:43:35;;;;;;;6.53;4.72;;;;;;;18.12;100.00;101122.50;5984499;29;20080;-92
2023/08/17 13:46:37;;;;;;;8.95;5.10;;;;;;;18.14;100.00;101125.78;5978688;29;20521;-92
2023/08/17 13:49:39;;;;;;;7.18;4.60;;;;;;;18.18;100.00;101125.28;5982499;29;20050;-92
2023/08/17 13:52:41;;;;;;;6.03;4.20;;;;;;;18.29;100.00;101119.78;5976806;29;20039;-93
2023/08/17 13:55:43;;;;;;;6.43;4.00;;;;;;;18.39;100.00;101127.53;5976179;29;20042;-92
2023/08/17 13:58:45;;;;;;;5.47;3.95;;;;;;;18.45;100.00;101123.44;5986798;29;20127;-94
2023/08/17 14:01:47;;;;;;;4.57;4.07;;;;;;;18.65;100.00;101129.25;5987228;29;20050;-93
2023/08/17 14:04:49;;;;;;;5.93;3.70;;;;;;;18.84;100.00;101117.72;5986333;29;20187;-93
2023/08/17 14:07:51;;;;;;;5.60;3.35;;;;;;;19.02;100.00;101120.19;5985429;29;20043;-94
2023/08/17 14:10:53;;;;;;;5.22;3.42;;;;;;;19.18;100.00;101114.13;5977180;29;20103;-94
2023/08/17 14:13:56;;;;;;;3.92;3.53;;;;;;;19.18;100.00;101108.88;5986733;29;20462;-94
2023/08/17 14:16:58;;;;;;;6.70;4.50;;;;;;;19.15;100.00;101097.75;5984441;29;20046;-93
2023/08/17 14:19:59;;;;;;;7.78;3.25;;;;;;;19.08;100.00;101094.13;5983597;29;20121;-93
2023/08/17 14:23:01;;;;;;;4.70;3.25;;;;;;;19.07;100.00;101092.47;5996427;29;20141;-93
2023/08/17 14:26:03;;;;;;;5.55;3.55;;;;;;;19.04;100.00;101092.00;5977384;29;20049;-94
2023/08/17 14:29:05;;;;;;;4.38;3.13;;;;;;;19.02;100.00;101093.97;5981901;29;20054;-94
2023/08/17 14:32:06;;;;;;;3.53;3.10;;;;;;;18.94;100.00;101084.28;5982770;29;20780;-94
2023/08/17 14:35:08;;;;;;;3.20;2.90;;;;;;;18.88;100.00;101095.41;5982533;29;20101;-93
2023/08/17 14:38:14;;;;;;;4.97;3.53;;;;;;;18.84;100.00;101091.47;5983302;29;20133;-94
2023/08/17 14:41:16;;;;;;;5.78;3.50;;;;;;;18.84;100.00;101096.72;5979616;29;20572;-95
2023/08/17 14:44:18;;;;;;;5.20;3.63;;;;;;;18.79;100.00;101091.97;5981929;29;20389;-94
2023/08/17 14:47:20;;;;;;;4.30;3.28;;;;;;;18.70;100.00;101093.69;5981160;29;20165;-94
2023/08/17 14:50:23;;;;;;;3.70;3.28;;;;;;;18.62;100.00;101093.69;5985127;29;20563;-94
2023/08/17 14:53:30;;;;;;;4.68;3.40;;;;;;;18.57;100.00;101100.41;5983378;29;20046;-95
2023/08/17 14:56:31;;;;;;;7.90;4.10;;;;;;;18.51;100.00;101097.44;5977863;29;20129;-95
2023/08/17 14:59:34;;;;;;;6.15;4.20;;;;;;;18.48;100.00;101091.66;5981269;29;20042;-94
2023/08/17 15:02:36;;;;;;;9.93;5.45;;;;;;;18.45;100.00;101090.19;5982798;29;20046;-94
2023/08/17 15:05:38;;;;;;;8.45;5.30;;;;;;;18.45;100.00;101087.56;5981708;29;20038;-94
2023/08/17 15:08:40;;;;;;;9.00;5.38;;;;;;;18.46;100.00;101091.84;5981585;29;20098;-95
2023/08/17 15:11:42;;;;;;;6.32;4.13;;;;;;;18.45;100.00;101090.19;5986313;29;20060;-95
2023/08/17 15:14:44;;;;;;;7.25;4.53;;;;;;;18.45;100.00;101092.00;5980720;29;20054;-96
2023/08/17 15:17:46;;;;;;;8.07;5.10;;;;;;;18.41;100.00;101093.28;5983093;29;20053;-96
2023/08/17 15:20:49;;;;;;;8.27;4.80;;;;;;;18.39;100.00;101096.06;5984292;29;20102;-96
2023/08/17 15:23:51;;;;;;;10.38;6.68;;;;;;;18.41;100.00;101086.25;5982792;29;20057;-95
2023/08/17 15:26:53;;;;;;;10.48;6.07;;;;;;;18.40;100.00;101084.59;5984331;29;20109;-95